sensor_id;sensor_type;location;lat;lon;timestamp;P1;durP1;ratioP1;P2;durP2;ratioP2
60665;SDS011;59128;44.642;21.188;2022-07-23T00:01:14;5.75;;;3.40;;
60665;SDS011;59128;44.642;21.188;2022-07-23T00:03:40;5.00;;;3.45;;
60665;SDS011;59128;44.642;21.188;2022-07-23T00:06:06;5.23;;;3.63;;
60665;SDS011;59128;44.642;21.188;2022-07-23T00:08:32;5.70;;;3.40;;
60665;SDS011;59128;44.642;21.188;2022-07-23T00:10:58;6.28;;;3.92;;
60665;SDS011;59128;44.642;21.188;2022-07-23T00:13:25;6.40;;;3.88;;
60665;SDS011;59128;44.642;21.188;2022-07-23T00:15:51;5.28;;;3.63;;
60665;SDS011;59128;44.642;21.188;2022-07-23T00:18:17;5.25;;;3.67;;
60665;SDS011;59128;44.642;21.188;2022-07-23T00:20:43;6.25;;;4.00;;
60665;SDS011;59128;44.642;21.188;2022-07-23T00:23:09;6.07;;;4.10;;
60665;SDS011;59128;44.642;21.188;2022-07-23T00:25:35;5.53;;;3.55;;
60665;SDS011;59128;44.642;21.188;2022-07-23T00:28:02;6.65;;;3.30;;
60665;SDS011;59128;44.642;21.188;2022-07-23T00:30:28;4.07;;;3.30;;
60665;SDS011;59128;44.642;21.188;2022-07-23T00:32:56;5.90;;;3.70;;
60665;SDS011;59128;44.642;21.188;2022-07-23T00:35:23;6.28;;;4.10;;
60665;SDS011;59128;44.642;21.188;2022-07-23T00:37:49;6.88;;;3.92;;
60665;SDS011;59128;44.642;21.188;2022-07-23T00:40:16;8.30;;;4.20;;
60665;SDS011;59128;44.642;21.188;2022-07-23T00:42:42;8.05;;;4.18;;
60665;SDS011;59128;44.642;21.188;2022-07-23T00:45:08;6.32;;;4.03;;
60665;SDS011;59128;44.642;21.188;2022-07-23T00:47:35;8.00;;;4.37;;
60665;SDS011;59128;44.642;21.188;2022-07-23T00:50:02;4.60;;;4.05;;
60665;SDS011;59128;44.642;21.188;2022-07-23T00:52:28;6.22;;;3.80;;
60665;SDS011;59128;44.642;21.188;2022-07-23T00:54:55;5.82;;;3.90;;
60665;SDS011;59128;44.642;21.188;2022-07-23T00:57:21;7.43;;;3.78;;
60665;SDS011;59128;44.642;21.188;2022-07-23T00:59:47;6.10;;;3.40;;
60665;SDS011;59128;44.642;21.188;2022-07-23T01:02:13;6.43;;;3.72;;
60665;SDS011;59128;44.642;21.188;2022-07-23T01:04:39;7.15;;;3.53;;
60665;SDS011;59128;44.642;21.188;2022-07-23T01:07:05;5.75;;;3.50;;
60665;SDS011;59128;44.642;21.188;2022-07-23T01:09:32;5.82;;;3.58;;
60665;SDS011;59128;44.642;21.188;2022-07-23T01:11:58;4.93;;;3.50;;
60665;SDS011;59128;44.642;21.188;2022-07-23T01:14:24;4.97;;;3.47;;
60665;SDS011;59128;44.642;21.188;2022-07-23T01:16:51;5.13;;;3.63;;
60665;SDS011;59128;44.642;21.188;2022-07-23T01:19:17;5.82;;;3.33;;
60665;SDS011;59128;44.642;21.188;2022-07-23T01:21:44;5.50;;;3.27;;
60665;SDS011;59128;44.642;21.188;2022-07-23T01:24:11;8.27;;;4.00;;
60665;SDS011;59128;44.642;21.188;2022-07-23T01:26:37;6.38;;;3.60;;
60665;SDS011;59128;44.642;21.188;2022-07-23T01:29:04;5.28;;;3.50;;
60665;SDS011;59128;44.642;21.188;2022-07-23T01:31:30;5.00;;;3.42;;
60665;SDS011;59128;44.642;21.188;2022-07-23T01:33:56;5.90;;;3.50;;
60665;SDS011;59128;44.642;21.188;2022-07-23T01:36:23;5.47;;;3.30;;
60665;SDS011;59128;44.642;21.188;2022-07-23T01:38:49;5.47;;;3.50;;
60665;SDS011;59128;44.642;21.188;2022-07-23T01:41:15;6.40;;;3.70;;
60665;SDS011;59128;44.642;21.188;2022-07-23T01:43:42;5.55;;;3.50;;
60665;SDS011;59128;44.642;21.188;2022-07-23T01:46:08;5.88;;;3.72;;
60665;SDS011;59128;44.642;21.188;2022-07-23T01:48:34;5.82;;;3.33;;
60665;SDS011;59128;44.642;21.188;2022-07-23T01:51:00;4.60;;;3.40;;
60665;SDS011;59128;44.642;21.188;2022-07-23T01:53:26;4.60;;;3.50;;
60665;SDS011;59128;44.642;21.188;2022-07-23T01:55:52;5.57;;;3.40;;
60665;SDS011;59128;44.642;21.188;2022-07-23T01:58:18;7.63;;;3.45;;
60665;SDS011;59128;44.642;21.188;2022-07-23T02:00:44;6.07;;;3.50;;
60665;SDS011;59128;44.642;21.188;2022-07-23T02:03:10;4.65;;;3.60;;
60665;SDS011;59128;44.642;21.188;2022-07-23T02:05:36;5.60;;;3.40;;
60665;SDS011;59128;44.642;21.188;2022-07-23T02:08:02;5.45;;;3.65;;
60665;SDS011;59128;44.642;21.188;2022-07-23T02:10:28;4.55;;;3.38;;
60665;SDS011;59128;44.642;21.188;2022-07-23T02:12:54;6.20;;;3.47;;
60665;SDS011;59128;44.642;21.188;2022-07-23T02:15:21;4.55;;;3.63;;
60665;SDS011;59128;44.642;21.188;2022-07-23T02:17:47;6.65;;;3.55;;
60665;SDS011;59128;44.642;21.188;2022-07-23T02:20:13;4.22;;;3.40;;
60665;SDS011;59128;44.642;21.188;2022-07-23T02:22:39;4.78;;;3.50;;
60665;SDS011;59128;44.642;21.188;2022-07-23T02:25:05;4.32;;;3.13;;
60665;SDS011;59128;44.642;21.188;2022-07-23T02:27:32;5.38;;;3.75;;
60665;SDS011;59128;44.642;21.188;2022-07-23T02:29:58;6.03;;;3.60;;
60665;SDS011;59128;44.642;21.188;2022-07-23T02:32:24;7.23;;;3.30;;
60665;SDS011;59128;44.642;21.188;2022-07-23T02:34:50;7.87;;;3.70;;
60665;SDS011;59128;44.642;21.188;2022-07-23T02:37:16;6.05;;;3.33;;
60665;SDS011;59128;44.642;21.188;2022-07-23T02:39:43;5.40;;;3.50;;
60665;SDS011;59128;44.642;21.188;2022-07-23T02:42:09;4.57;;;3.50;;
60665;SDS011;59128;44.642;21.188;2022-07-23T02:44:35;5.03;;;3.53;;
60665;SDS011;59128;44.642;21.188;2022-07-23T02:47:01;5.32;;;3.20;;
60665;SDS011;59128;44.642;21.188;2022-07-23T02:49:27;4.13;;;3.57;;
60665;SDS011;59128;44.642;21.188;2022-07-23T02:51:53;4.73;;;3.53;;
60665;SDS011;59128;44.642;21.188;2022-07-23T02:54:19;5.77;;;3.40;;
60665;SDS011;59128;44.642;21.188;2022-07-23T02:56:45;4.03;;;3.30;;
60665;SDS011;59128;44.642;21.188;2022-07-23T02:59:11;4.82;;;3.92;;
60665;SDS011;59128;44.642;21.188;2022-07-23T03:01:37;5.55;;;3.30;;
60665;SDS011;59128;44.642;21.188;2022-07-23T03:04:04;6.32;;;3.60;;
60665;SDS011;59128;44.642;21.188;2022-07-23T03:06:30;7.55;;;3.70;;
60665;SDS011;59128;44.642;21.188;2022-07-23T03:08:56;6.97;;;3.70;;
60665;SDS011;59128;44.642;21.188;2022-07-23T03:11:22;5.95;;;3.70;;
60665;SDS011;59128;44.642;21.188;2022-07-23T03:13:48;5.68;;;3.53;;
60665;SDS011;59128;44.642;21.188;2022-07-23T03:16:14;5.55;;;3.65;;
60665;SDS011;59128;44.642;21.188;2022-07-23T03:18:40;5.97;;;3.95;;
60665;SDS011;59128;44.642;21.188;2022-07-23T03:21:06;5.70;;;3.53;;
60665;SDS011;59128;44.642;21.188;2022-07-23T03:23:32;6.38;;;3.47;;
60665;SDS011;59128;44.642;21.188;2022-07-23T03:25:58;4.55;;;3.53;;
60665;SDS011;59128;44.642;21.188;2022-07-23T03:28:24;5.80;;;4.10;;
60665;SDS011;59128;44.642;21.188;2022-07-23T03:30:50;8.20;;;3.78;;
60665;SDS011;59128;44.642;21.188;2022-07-23T03:33:17;7.00;;;4.03;;
60665;SDS011;59128;44.642;21.188;2022-07-23T03:35:43;5.85;;;3.67;;
60665;SDS011;59128;44.642;21.188;2022-07-23T03:38:09;4.93;;;3.70;;
60665;SDS011;59128;44.642;21.188;2022-07-23T03:40:36;6.93;;;3.80;;
60665;SDS011;59128;44.642;21.188;2022-07-23T03:43:02;5.10;;;4.30;;
60665;SDS011;59128;44.642;21.188;2022-07-23T03:45:28;6.25;;;3.75;;
60665;SDS011;59128;44.642;21.188;2022-07-23T03:47:54;4.97;;;3.70;;
60665;SDS011;59128;44.642;21.188;2022-07-23T03:50:20;6.93;;;3.90;;
60665;SDS011;59128;44.642;21.188;2022-07-23T03:52:46;4.68;;;3.83;;
60665;SDS011;59128;44.642;21.188;2022-07-23T03:55:13;7.13;;;4.10;;
60665;SDS011;59128;44.642;21.188;2022-07-23T03:57:39;5.47;;;3.72;;
60665;SDS011;59128;44.642;21.188;2022-07-23T04:00:05;6.75;;;4.20;;
60665;SDS011;59128;44.642;21.188;2022-07-23T04:02:33;7.60;;;4.22;;
60665;SDS011;59128;44.642;21.188;2022-07-23T04:04:59;7.40;;;4.03;;
60665;SDS011;59128;44.642;21.188;2022-07-23T04:07:25;7.10;;;3.87;;
60665;SDS011;59128;44.642;21.188;2022-07-23T04:09:52;11.27;;;3.70;;
60665;SDS011;59128;44.642;21.188;2022-07-23T04:12:18;7.05;;;3.70;;
60665;SDS011;59128;44.642;21.188;2022-07-23T04:14:44;5.22;;;3.70;;
60665;SDS011;59128;44.642;21.188;2022-07-23T04:17:11;5.50;;;3.40;;
60665;SDS011;59128;44.642;21.188;2022-07-23T04:19:37;5.75;;;3.50;;
60665;SDS011;59128;44.642;21.188;2022-07-23T04:22:07;5.50;;;3.67;;
60665;SDS011;59128;44.642;21.188;2022-07-23T04:24:33;5.18;;;3.53;;
60665;SDS011;59128;44.642;21.188;2022-07-23T04:26:59;6.63;;;3.83;;
60665;SDS011;59128;44.642;21.188;2022-07-23T04:29:25;7.15;;;3.78;;
60665;SDS011;59128;44.642;21.188;2022-07-23T04:31:51;4.10;;;3.40;;
60665;SDS011;59128;44.642;21.188;2022-07-23T04:34:17;5.73;;;3.70;;
60665;SDS011;59128;44.642;21.188;2022-07-23T04:36:43;7.10;;;4.17;;
60665;SDS011;59128;44.642;21.188;2022-07-23T04:39:10;6.25;;;3.92;;
60665;SDS011;59128;44.642;21.188;2022-07-23T04:41:36;9.88;;;4.47;;
60665;SDS011;59128;44.642;21.188;2022-07-23T04:44:02;6.43;;;4.50;;
60665;SDS011;59128;44.642;21.188;2022-07-23T04:46:28;7.75;;;4.75;;
60665;SDS011;59128;44.642;21.188;2022-07-23T04:48:54;8.37;;;4.50;;
60665;SDS011;59128;44.642;21.188;2022-07-23T04:51:20;6.05;;;4.13;;
60665;SDS011;59128;44.642;21.188;2022-07-23T04:53:46;9.02;;;5.10;;
60665;SDS011;59128;44.642;21.188;2022-07-23T04:56:12;7.20;;;4.95;;
60665;SDS011;59128;44.642;21.188;2022-07-23T04:58:38;6.43;;;5.10;;
60665;SDS011;59128;44.642;21.188;2022-07-23T05:01:05;9.05;;;4.95;;
60665;SDS011;59128;44.642;21.188;2022-07-23T05:03:31;11.23;;;5.28;;
60665;SDS011;59128;44.642;21.188;2022-07-23T05:05:58;8.65;;;4.88;;
60665;SDS011;59128;44.642;21.188;2022-07-23T05:08:24;8.27;;;5.07;;
60665;SDS011;59128;44.642;21.188;2022-07-23T05:10:50;6.75;;;4.85;;
60665;SDS011;59128;44.642;21.188;2022-07-23T05:13:17;8.80;;;4.97;;
60665;SDS011;59128;44.642;21.188;2022-07-23T05:15:43;6.18;;;4.63;;
60665;SDS011;59128;44.642;21.188;2022-07-23T05:18:09;7.18;;;4.65;;
60665;SDS011;59128;44.642;21.188;2022-07-23T05:20:35;7.43;;;4.85;;
60665;SDS011;59128;44.642;21.188;2022-07-23T05:23:01;8.00;;;4.93;;
60665;SDS011;59128;44.642;21.188;2022-07-23T05:25:28;10.77;;;4.38;;
60665;SDS011;59128;44.642;21.188;2022-07-23T05:27:54;12.27;;;4.50;;
60665;SDS011;59128;44.642;21.188;2022-07-23T05:30:20;5.70;;;3.80;;
60665;SDS011;59128;44.642;21.188;2022-07-23T05:32:46;6.78;;;4.85;;
60665;SDS011;59128;44.642;21.188;2022-07-23T05:35:12;7.15;;;5.07;;
60665;SDS011;59128;44.642;21.188;2022-07-23T05:37:38;10.63;;;5.70;;
60665;SDS011;59128;44.642;21.188;2022-07-23T05:40:05;8.98;;;4.50;;
60665;SDS011;59128;44.642;21.188;2022-07-23T05:42:35;9.15;;;4.80;;
60665;SDS011;59128;44.642;21.188;2022-07-23T05:45:02;10.70;;;4.85;;
60665;SDS011;59128;44.642;21.188;2022-07-23T05:47:28;8.85;;;4.97;;
60665;SDS011;59128;44.642;21.188;2022-07-23T05:49:55;8.80;;;4.85;;
60665;SDS011;59128;44.642;21.188;2022-07-23T05:52:21;10.30;;;4.93;;
60665;SDS011;59128;44.642;21.188;2022-07-23T05:54:47;6.72;;;4.60;;
60665;SDS011;59128;44.642;21.188;2022-07-23T05:57:13;7.17;;;4.53;;
60665;SDS011;59128;44.642;21.188;2022-07-23T05:59:39;8.07;;;4.20;;
60665;SDS011;59128;44.642;21.188;2022-07-23T06:02:05;7.57;;;4.50;;
60665;SDS011;59128;44.642;21.188;2022-07-23T06:04:31;6.10;;;4.63;;
60665;SDS011;59128;44.642;21.188;2022-07-23T06:06:57;9.57;;;4.63;;
60665;SDS011;59128;44.642;21.188;2022-07-23T06:09:23;6.87;;;4.27;;
60665;SDS011;59128;44.642;21.188;2022-07-23T06:11:49;7.07;;;4.50;;
60665;SDS011;59128;44.642;21.188;2022-07-23T06:14:15;8.13;;;4.60;;
60665;SDS011;59128;44.642;21.188;2022-07-23T06:16:41;6.40;;;4.40;;
60665;SDS011;59128;44.642;21.188;2022-07-23T06:19:07;5.05;;;3.95;;
60665;SDS011;59128;44.642;21.188;2022-07-23T06:21:33;7.95;;;4.40;;
60665;SDS011;59128;44.642;21.188;2022-07-23T06:23:59;7.88;;;4.25;;
60665;SDS011;59128;44.642;21.188;2022-07-23T06:26:25;5.63;;;4.45;;
60665;SDS011;59128;44.642;21.188;2022-07-23T06:28:52;10.27;;;5.10;;
60665;SDS011;59128;44.642;21.188;2022-07-23T06:31:18;6.40;;;4.35;;
60665;SDS011;59128;44.642;21.188;2022-07-23T06:33:44;9.65;;;4.72;;
60665;SDS011;59128;44.642;21.188;2022-07-23T06:36:10;7.50;;;4.40;;
60665;SDS011;59128;44.642;21.188;2022-07-23T06:38:36;8.90;;;4.95;;
60665;SDS011;59128;44.642;21.188;2022-07-23T06:41:02;8.25;;;4.45;;
60665;SDS011;59128;44.642;21.188;2022-07-23T06:43:29;10.68;;;4.85;;
60665;SDS011;59128;44.642;21.188;2022-07-23T06:45:56;4.65;;;4.25;;
60665;SDS011;59128;44.642;21.188;2022-07-23T06:48:22;10.23;;;5.05;;
60665;SDS011;59128;44.642;21.188;2022-07-23T06:50:48;9.77;;;4.80;;
60665;SDS011;59128;44.642;21.188;2022-07-23T06:53:14;7.85;;;5.15;;
60665;SDS011;59128;44.642;21.188;2022-07-23T06:55:40;9.50;;;4.80;;
60665;SDS011;59128;44.642;21.188;2022-07-23T06:58:06;8.10;;;5.15;;
60665;SDS011;59128;44.642;21.188;2022-07-23T07:00:34;6.88;;;4.68;;
60665;SDS011;59128;44.642;21.188;2022-07-23T07:03:00;9.95;;;4.72;;
60665;SDS011;59128;44.642;21.188;2022-07-23T07:05:26;10.20;;;5.28;;
60665;SDS011;59128;44.642;21.188;2022-07-23T07:07:53;7.78;;;4.85;;
60665;SDS011;59128;44.642;21.188;2022-07-23T07:10:20;6.68;;;4.57;;
60665;SDS011;59128;44.642;21.188;2022-07-23T07:12:46;7.80;;;4.82;;
60665;SDS011;59128;44.642;21.188;2022-07-23T07:15:12;9.23;;;4.75;;
60665;SDS011;59128;44.642;21.188;2022-07-23T07:17:38;5.88;;;4.40;;
60665;SDS011;59128;44.642;21.188;2022-07-23T07:20:04;9.48;;;4.43;;
60665;SDS011;59128;44.642;21.188;2022-07-23T07:22:31;6.45;;;4.30;;
60665;SDS011;59128;44.642;21.188;2022-07-23T07:24:57;7.35;;;4.32;;
60665;SDS011;59128;44.642;21.188;2022-07-23T07:27:23;9.77;;;4.13;;
60665;SDS011;59128;44.642;21.188;2022-07-23T07:29:49;5.43;;;3.92;;
60665;SDS011;59128;44.642;21.188;2022-07-23T07:32:15;5.63;;;4.13;;
60665;SDS011;59128;44.642;21.188;2022-07-23T07:34:41;6.93;;;4.22;;
60665;SDS011;59128;44.642;21.188;2022-07-23T07:37:07;9.65;;;3.85;;
60665;SDS011;59128;44.642;21.188;2022-07-23T07:39:33;6.25;;;3.33;;
60665;SDS011;59128;44.642;21.188;2022-07-23T07:41:59;9.25;;;3.80;;
60665;SDS011;59128;44.642;21.188;2022-07-23T07:44:25;5.20;;;3.40;;
60665;SDS011;59128;44.642;21.188;2022-07-23T07:46:51;7.78;;;3.72;;
60665;SDS011;59128;44.642;21.188;2022-07-23T07:49:18;5.00;;;3.35;;
60665;SDS011;59128;44.642;21.188;2022-07-23T07:51:44;8.60;;;3.85;;
60665;SDS011;59128;44.642;21.188;2022-07-23T07:54:11;8.98;;;4.00;;
60665;SDS011;59128;44.642;21.188;2022-07-23T07:56:37;4.82;;;3.45;;
60665;SDS011;59128;44.642;21.188;2022-07-23T07:59:03;7.22;;;4.10;;
60665;SDS011;59128;44.642;21.188;2022-07-23T08:01:29;22.98;;;4.53;;
60665;SDS011;59128;44.642;21.188;2022-07-23T08:03:55;10.20;;;4.35;;
60665;SDS011;59128;44.642;21.188;2022-07-23T08:06:21;17.50;;;4.03;;
60665;SDS011;59128;44.642;21.188;2022-07-23T08:08:47;8.73;;;4.85;;
60665;SDS011;59128;44.642;21.188;2022-07-23T08:11:13;4.45;;;3.80;;
60665;SDS011;59128;44.642;21.188;2022-07-23T08:13:40;16.30;;;4.05;;
60665;SDS011;59128;44.642;21.188;2022-07-23T08:16:06;13.75;;;4.40;;
60665;SDS011;59128;44.642;21.188;2022-07-23T08:18:32;4.63;;;3.60;;
60665;SDS011;59128;44.642;21.188;2022-07-23T08:20:58;4.03;;;3.47;;
60665;SDS011;59128;44.642;21.188;2022-07-23T08:23:24;10.88;;;4.22;;
60665;SDS011;59128;44.642;21.188;2022-07-23T08:25:50;19.80;;;4.40;;
60665;SDS011;59128;44.642;21.188;2022-07-23T08:28:16;13.15;;;3.72;;
60665;SDS011;59128;44.642;21.188;2022-07-23T08:30:43;4.28;;;3.45;;
60665;SDS011;59128;44.642;21.188;2022-07-23T08:33:10;8.20;;;3.45;;
60665;SDS011;59128;44.642;21.188;2022-07-23T08:35:39;10.80;;;4.05;;
60665;SDS011;59128;44.642;21.188;2022-07-23T08:38:06;4.20;;;3.60;;
60665;SDS011;59128;44.642;21.188;2022-07-23T08:40:34;4.78;;;3.17;;
60665;SDS011;59128;44.642;21.188;2022-07-23T08:43:01;7.32;;;2.55;;
60665;SDS011;59128;44.642;21.188;2022-07-23T08:45:30;5.95;;;2.47;;
60665;SDS011;59128;44.642;21.188;2022-07-23T08:47:57;4.72;;;2.25;;
60665;SDS011;59128;44.642;21.188;2022-07-23T08:50:26;4.68;;;2.40;;
60665;SDS011;59128;44.642;21.188;2022-07-23T08:52:52;3.97;;;2.60;;
60665;SDS011;59128;44.642;21.188;2022-07-23T08:55:19;4.18;;;2.30;;
60665;SDS011;59128;44.642;21.188;2022-07-23T08:57:47;6.18;;;2.47;;
60665;SDS011;59128;44.642;21.188;2022-07-23T09:00:14;4.47;;;2.63;;
60665;SDS011;59128;44.642;21.188;2022-07-23T09:02:40;7.20;;;2.75;;
60665;SDS011;59128;44.642;21.188;2022-07-23T09:05:08;16.20;;;3.80;;
60665;SDS011;59128;44.642;21.188;2022-07-23T09:07:34;6.65;;;2.92;;
60665;SDS011;59128;44.642;21.188;2022-07-23T09:10:07;6.03;;;3.25;;
60665;SDS011;59128;44.642;21.188;2022-07-23T09:12:34;5.57;;;3.15;;
60665;SDS011;59128;44.642;21.188;2022-07-23T09:15:04;9.80;;;3.63;;
60665;SDS011;59128;44.642;21.188;2022-07-23T09:17:36;6.38;;;3.00;;
60665;SDS011;59128;44.642;21.188;2022-07-23T09:20:09;4.13;;;3.05;;
60665;SDS011;59128;44.642;21.188;2022-07-23T09:25:02;7.40;;;3.88;;
60665;SDS011;59128;44.642;21.188;2022-07-23T09:27:50;6.78;;;3.53;;
60665;SDS011;59128;44.642;21.188;2022-07-23T09:30:15;8.90;;;3.63;;
60665;SDS011;59128;44.642;21.188;2022-07-23T09:32:41;8.60;;;3.72;;
60665;SDS011;59128;44.642;21.188;2022-07-23T09:35:07;4.82;;;3.67;;
60665;SDS011;59128;44.642;21.188;2022-07-23T09:37:33;8.23;;;3.88;;
60665;SDS011;59128;44.642;21.188;2022-07-23T09:40:07;5.95;;;3.60;;
60665;SDS011;59128;44.642;21.188;2022-07-23T09:42:34;4.93;;;3.40;;
60665;SDS011;59128;44.642;21.188;2022-07-23T09:45:01;7.35;;;3.20;;
60665;SDS011;59128;44.642;21.188;2022-07-23T09:47:31;8.93;;;3.57;;
60665;SDS011;59128;44.642;21.188;2022-07-23T09:52:28;8.40;;;3.30;;
60665;SDS011;59128;44.642;21.188;2022-07-23T09:54:59;16.93;;;4.07;;
60665;SDS011;59128;44.642;21.188;2022-07-23T09:57:25;6.57;;;2.95;;
60665;SDS011;59128;44.642;21.188;2022-07-23T09:59:52;5.85;;;2.85;;
60665;SDS011;59128;44.642;21.188;2022-07-23T10:02:18;4.18;;;2.65;;
60665;SDS011;59128;44.642;21.188;2022-07-23T10:04:45;3.60;;;2.80;;
60665;SDS011;59128;44.642;21.188;2022-07-23T10:07:11;5.70;;;2.97;;
60665;SDS011;59128;44.642;21.188;2022-07-23T10:09:40;10.05;;;3.00;;
60665;SDS011;59128;44.642;21.188;2022-07-23T10:12:13;4.07;;;2.70;;
60665;SDS011;59128;44.642;21.188;2022-07-23T10:14:58;4.45;;;3.20;;
60665;SDS011;59128;44.642;21.188;2022-07-23T10:17:25;6.72;;;2.55;;
60665;SDS011;59128;44.642;21.188;2022-07-23T10:19:51;8.68;;;2.80;;
60665;SDS011;59128;44.642;21.188;2022-07-23T10:22:22;4.80;;;2.60;;
60665;SDS011;59128;44.642;21.188;2022-07-23T10:25:32;3.47;;;2.87;;
60665;SDS011;59128;44.642;21.188;2022-07-23T10:27:47;5.10;;;2.60;;
60665;SDS011;59128;44.642;21.188;2022-07-23T10:31:00;3.85;;;2.88;;
60665;SDS011;59128;44.642;21.188;2022-07-23T10:38:30;5.22;;;2.60;;
60665;SDS011;59128;44.642;21.188;2022-07-23T10:40:57;3.85;;;2.95;;
60665;SDS011;59128;44.642;21.188;2022-07-23T10:43:24;6.95;;;2.80;;
60665;SDS011;59128;44.642;21.188;2022-07-23T10:45:50;6.72;;;2.45;;
60665;SDS011;59128;44.642;21.188;2022-07-23T10:50:42;5.00;;;2.35;;
60665;SDS011;59128;44.642;21.188;2022-07-23T10:53:16;3.70;;;2.40;;
60665;SDS011;59128;44.642;21.188;2022-07-23T10:55:43;4.68;;;2.40;;
60665;SDS011;59128;44.642;21.188;2022-07-23T10:58:10;4.22;;;2.50;;
60665;SDS011;59128;44.642;21.188;2022-07-23T11:00:36;4.60;;;2.50;;
60665;SDS011;59128;44.642;21.188;2022-07-23T11:03:04;5.45;;;2.75;;
60665;SDS011;59128;44.642;21.188;2022-07-23T11:05:43;3.47;;;3.10;;
60665;SDS011;59128;44.642;21.188;2022-07-23T11:08:14;7.57;;;2.60;;
60665;SDS011;59128;44.642;21.188;2022-07-23T11:10:42;14.30;;;3.17;;
60665;SDS011;59128;44.642;21.188;2022-07-23T11:32:05;6.25;;;2.78;;
60665;SDS011;59128;44.642;21.188;2022-07-23T11:37:04;5.63;;;2.88;;
60665;SDS011;59128;44.642;21.188;2022-07-23T11:39:31;11.93;;;3.33;;
60665;SDS011;59128;44.642;21.188;2022-07-23T11:41:58;5.40;;;2.78;;
60665;SDS011;59128;44.642;21.188;2022-07-23T11:44:35;3.88;;;2.50;;
60665;SDS011;59128;44.642;21.188;2022-07-23T11:47:03;4.63;;;2.47;;
60665;SDS011;59128;44.642;21.188;2022-07-23T11:49:29;4.65;;;2.50;;
60665;SDS011;59128;44.642;21.188;2022-07-23T11:52:05;4.50;;;2.50;;
60665;SDS011;59128;44.642;21.188;2022-07-23T11:54:32;4.88;;;2.60;;
60665;SDS011;59128;44.642;21.188;2022-07-23T11:56:59;3.30;;;2.40;;
60665;SDS011;59128;44.642;21.188;2022-07-23T11:59:26;3.88;;;2.53;;
60665;SDS011;59128;44.642;21.188;2022-07-23T12:01:56;5.78;;;2.42;;
60665;SDS011;59128;44.642;21.188;2022-07-23T12:04:23;4.10;;;2.45;;
60665;SDS011;59128;44.642;21.188;2022-07-23T12:06:49;4.23;;;2.63;;
60665;SDS011;59128;44.642;21.188;2022-07-23T12:09:15;4.05;;;2.70;;
60665;SDS011;59128;44.642;21.188;2022-07-23T12:11:56;3.95;;;2.30;;
60665;SDS011;59128;44.642;21.188;2022-07-23T12:14:22;7.97;;;2.53;;
60665;SDS011;59128;44.642;21.188;2022-07-23T12:17:06;4.57;;;2.05;;
60665;SDS011;59128;44.642;21.188;2022-07-23T12:19:32;4.80;;;2.35;;
60665;SDS011;59128;44.642;21.188;2022-07-23T12:21:58;8.45;;;2.67;;
60665;SDS011;59128;44.642;21.188;2022-07-23T12:24:24;4.67;;;2.03;;
60665;SDS011;59128;44.642;21.188;2022-07-23T12:27:09;4.85;;;2.10;;
60665;SDS011;59128;44.642;21.188;2022-07-23T12:29:36;4.73;;;2.30;;
60665;SDS011;59128;44.642;21.188;2022-07-23T12:32:15;6.30;;;2.40;;
60665;SDS011;59128;44.642;21.188;2022-07-23T12:34:42;6.00;;;2.22;;
60665;SDS011;59128;44.642;21.188;2022-07-23T12:37:08;16.15;;;2.70;;
60665;SDS011;59128;44.642;21.188;2022-07-23T12:39:34;4.63;;;2.55;;
60665;SDS011;59128;44.642;21.188;2022-07-23T12:42:00;4.43;;;2.30;;
60665;SDS011;59128;44.642;21.188;2022-07-23T12:44:26;4.15;;;2.67;;
60665;SDS011;59128;44.642;21.188;2022-07-23T12:46:52;5.53;;;2.40;;
60665;SDS011;59128;44.642;21.188;2022-07-23T12:49:25;10.20;;;2.85;;
60665;SDS011;59128;44.642;21.188;2022-07-23T12:51:51;5.72;;;2.58;;
60665;SDS011;59128;44.642;21.188;2022-07-23T12:54:17;3.85;;;2.85;;
60665;SDS011;59128;44.642;21.188;2022-07-23T12:56:44;3.90;;;2.58;;
60665;SDS011;59128;44.642;21.188;2022-07-23T12:59:11;3.50;;;2.50;;
60665;SDS011;59128;44.642;21.188;2022-07-23T13:01:45;3.97;;;2.60;;
60665;SDS011;59128;44.642;21.188;2022-07-23T13:04:23;4.38;;;3.00;;
60665;SDS011;59128;44.642;21.188;2022-07-23T13:06:51;4.75;;;2.78;;
60665;SDS011;59128;44.642;21.188;2022-07-23T13:09:18;21.60;;;4.30;;
60665;SDS011;59128;44.642;21.188;2022-07-23T13:11:45;4.80;;;2.78;;
60665;SDS011;59128;44.642;21.188;2022-07-23T13:14:11;3.30;;;2.80;;
60665;SDS011;59128;44.642;21.188;2022-07-23T13:16:38;3.70;;;2.70;;
60665;SDS011;59128;44.642;21.188;2022-07-23T13:19:04;3.60;;;2.90;;
60665;SDS011;59128;44.642;21.188;2022-07-23T13:21:31;6.25;;;3.13;;
60665;SDS011;59128;44.642;21.188;2022-07-23T13:23:57;6.13;;;3.00;;
60665;SDS011;59128;44.642;21.188;2022-07-23T13:26:24;4.20;;;2.87;;
60665;SDS011;59128;44.642;21.188;2022-07-23T13:28:50;3.50;;;3.00;;
60665;SDS011;59128;44.642;21.188;2022-07-23T13:31:16;2.80;;;2.60;;
60665;SDS011;59128;44.642;21.188;2022-07-23T13:33:42;3.92;;;2.88;;
60665;SDS011;59128;44.642;21.188;2022-07-23T13:36:08;6.47;;;3.00;;
60665;SDS011;59128;44.642;21.188;2022-07-23T13:38:34;7.80;;;3.00;;
60665;SDS011;59128;44.642;21.188;2022-07-23T13:41:00;13.00;;;3.85;;
60665;SDS011;59128;44.642;21.188;2022-07-23T13:43:28;5.43;;;3.08;;
60665;SDS011;59128;44.642;21.188;2022-07-23T13:45:54;4.10;;;3.03;;
60665;SDS011;59128;44.642;21.188;2022-07-23T13:48:20;4.22;;;2.83;;
60665;SDS011;59128;44.642;21.188;2022-07-23T13:50:47;5.57;;;3.00;;
60665;SDS011;59128;44.642;21.188;2022-07-23T13:53:14;3.57;;;3.03;;
60665;SDS011;59128;44.642;21.188;2022-07-23T13:55:40;3.70;;;2.80;;
60665;SDS011;59128;44.642;21.188;2022-07-23T13:58:07;5.65;;;3.08;;
60665;SDS011;59128;44.642;21.188;2022-07-23T14:00:35;4.00;;;3.10;;
60665;SDS011;59128;44.642;21.188;2022-07-23T14:03:01;5.88;;;3.40;;
60665;SDS011;59128;44.642;21.188;2022-07-23T14:05:27;3.75;;;3.17;;
60665;SDS011;59128;44.642;21.188;2022-07-23T14:07:53;4.63;;;2.70;;
60665;SDS011;59128;44.642;21.188;2022-07-23T14:10:20;3.47;;;2.97;;
60665;SDS011;59128;44.642;21.188;2022-07-23T14:12:47;3.28;;;2.90;;
60665;SDS011;59128;44.642;21.188;2022-07-23T14:15:13;3.38;;;2.92;;
60665;SDS011;59128;44.642;21.188;2022-07-23T14:17:40;3.80;;;3.00;;
60665;SDS011;59128;44.642;21.188;2022-07-23T14:20:07;4.28;;;2.95;;
60665;SDS011;59128;44.642;21.188;2022-07-23T14:22:33;3.38;;;2.97;;
60665;SDS011;59128;44.642;21.188;2022-07-23T14:24:59;4.00;;;3.00;;
60665;SDS011;59128;44.642;21.188;2022-07-23T14:27:26;6.85;;;3.20;;
60665;SDS011;59128;44.642;21.188;2022-07-23T14:29:52;4.65;;;2.92;;
60665;SDS011;59128;44.642;21.188;2022-07-23T14:32:19;3.03;;;2.70;;
60665;SDS011;59128;44.642;21.188;2022-07-23T14:34:45;3.47;;;2.97;;
60665;SDS011;59128;44.642;21.188;2022-07-23T14:37:11;4.90;;;2.92;;
60665;SDS011;59128;44.642;21.188;2022-07-23T14:39:40;4.00;;;3.00;;
60665;SDS011;59128;44.642;21.188;2022-07-23T14:42:07;5.73;;;2.90;;
60665;SDS011;59128;44.642;21.188;2022-07-23T14:44:34;6.47;;;3.13;;
60665;SDS011;59128;44.642;21.188;2022-07-23T14:47:00;32.43;;;5.00;;
60665;SDS011;59128;44.642;21.188;2022-07-23T14:49:26;3.88;;;3.17;;
60665;SDS011;59128;44.642;21.188;2022-07-23T14:51:52;3.78;;;3.10;;
60665;SDS011;59128;44.642;21.188;2022-07-23T14:54:19;4.60;;;2.93;;
60665;SDS011;59128;44.642;21.188;2022-07-23T14:56:45;3.38;;;3.08;;
60665;SDS011;59128;44.642;21.188;2022-07-23T14:59:11;4.03;;;3.40;;
60665;SDS011;59128;44.642;21.188;2022-07-23T15:01:37;3.78;;;2.92;;
60665;SDS011;59128;44.642;21.188;2022-07-23T15:04:04;5.30;;;3.10;;
60665;SDS011;59128;44.642;21.188;2022-07-23T15:06:30;4.43;;;3.17;;